Main page
METAR-TAF:

METAR-TAF

Airports :

Tarvisio, Italy

latitude: 46-30N, longitude: 013-35E, elevation: 777 m

Current weather observation

The report was made 7 hours and 32 minutes ago, at 17:55 UTC
Calm wind
Temperature 17°C
Humidity 63%
Pressure 1017 hPa
Visibility 10 km or more
Overcast at a height of 4000 ft

METAR: LIVO 241755Z 00000KT 9999 OVC040 17/10 Q1017 RMK OVC VIS MIN 9999

Time: 03:27 (01:27 UTC)


TAF: missing

Weather observations and forecasts of more than 4000 airports (METAR and TAF reports).

The available stations are represented by yellow and red dots on the map.

Hover mouse over dot to see the name of the station.

Then click to see weather observations and forecasts.

To change the map : click on the green buttons with a black cross to zoom in, on the green button with a dash to zoom out, or on the green arrows for adjacent maps.


METAR-TAF: